Latest Coastal Weather Observations for East Sale

IDV60701

Issued at 11:31 pm EST Monday 27 April 2015 (issued every 10 minutes, with the page automatically refreshed every 10 minutes)

About coastal observations | Map of coastal stations | Coastal observations for VIC | Marine services | Other Formats
Station Details ID: 085072 Name: EAST SALE AIRPORT Lat: -38.12 Lon: 147.13 Height: 4.6 m
Data from the previous 72 hours. | See also: Recent months at East Sale
Date/Time
EST
Temp

°C
Wind Pressure Rain
since 9am
mm
Weather Cloud Vis
km
Sea
Height
m
Swell
Dir
 
Speed
knots
Gust
knots
hPa Trend Height
m
Period
s
Dir
27/11:00pm 10.4 W 9 13 1025.4 - 0.0 - Partly cloudy 10 - - - -
27/10:30pm 10.8 W 9 13 1025.4 - 0.0 - Cloudy 10 - - - -
27/10:00pm 11.3 W 10 13 1025.2 - 0.0 - Cloudy 10 - - - -
27/09:30pm 11.2 WNW 9 10 1025.0 - 0.0 - Partly cloudy 10 - - - -
27/09:00pm 11.5 WNW 7 9 1024.7 R 0.0 - Mostly cloudy 10 - - - -
27/08:30pm 12.0 W 10 13 1024.5 - 0.0 - Cloudy 10 - - - -
27/08:00pm 11.0 WNW 7 7 1024.2 - 0.0 - Partly cloudy 10 - - - -
27/07:30pm 11.1 WSW 5 7 1023.9 - 0.0 - Cloudy 10 - - - -
27/07:00pm 12.0 SW 6 7 1023.7 - 0.0 - Cloudy 10 - - - -
27/06:30pm 13.0 SW 8 10 1023.3 - 0.0 - Partly cloudy 10 - - - -
27/06:00pm 13.3 SW 6 7 1022.9 R 0.0 - Cloudy 10 - - - -
27/05:30pm 13.9 WSW 9 11 1022.6 - 0.0 - Partly cloudy 10 - - - -
27/05:00pm 14.6 WSW 8 11 1022.1 - 0.0 - Partly cloudy 10 - - - -
27/04:30pm 14.5 WSW 10 13 1021.8 - 0.0 - Mostly clear 10 - - - -
27/04:00pm 14.6 WSW 7 11 1021.7 - 0.0 - Partly cloudy 10 - - - -
27/03:30pm 14.2 WSW 10 16 1021.7 - 0.0 - Partly cloudy 10 - - - -
27/03:00pm 15.1 WSW 9 13 1021.3 R 0.0 - Cloudy 10 - - - -
27/02:30pm 15.1 WSW 11 16 1021.1 - 0.0 - Mostly clear 10 - - - -
27/02:00pm 15.0 W 12 17 1021.0 - 0.0 - Mostly clear 10 - - - -
27/01:00pm 14.8 W 13 20 1021.0 - 0.0 - Partly cloudy 10 - - - -
27/12:30pm 16.0 W 12 18 1021.1 - 0.0 - Partly cloudy 10 - - - -
27/12:00pm 14.1 W 13 19 1021.6 R 0.0 - Cloudy 10 - - - -
27/11:30am 14.7 W 13 17 1021.7 - 0.0 - Partly cloudy 10 - - - -
27/11:00am 13.8 W 16 25 1021.7 - 0.0 - Partly cloudy 10 - - - -
27/10:56am 13.9 W 15 25 1021.8 - 0.0 - Partly cloudy 10 - - - -
27/10:00am 12.9 W 13 18 1021.9 - 0.0 - Partly cloudy 10 - - - -
27/09:00am 11.9 W 13 18 1021.9 R 0.2 - Cloudy 10 - - - -
27/08:30am 11.2 W 13 17 1021.8 - 0.2 - Mostly clear 10 - - - -
27/08:00am 11.1 W 10 12 1021.6 - 0.2 - Mostly clear 10 - - - -
27/07:30am 10.2 W 7 10 1021.1 - 0.2 - Mostly clear 10 - - - -
27/07:00am 10.3 W 11 14 1020.6 - 0.2 - Mostly clear 7 - - - -
27/06:30am 10.5 W 10 14 1020.4 - 0.2 - Partly cloudy 10 - - - -
27/06:00am 10.6 W 11 15 1020.1 R 0.2 - Cloudy 10 - - - -
27/05:30am 10.5 W 10 13 1020.0 - 0.2 - Partly cloudy 10 - - - -
27/05:00am 10.4 W 11 15 1019.6 - 0.2 - Partly cloudy 10 - - - -
27/04:30am 10.5 W 11 14 1019.3 - 0.2 - Partly cloudy 10 - - - -
27/04:00am 10.6 W 11 15 1019.0 - 0.2 - Partly cloudy 10 - - - -
27/03:30am 10.8 W 12 15 1018.8 - 0.2 - Partly cloudy 10 - - - -
27/03:00am 10.6 W 12 15 1018.8 R 0.2 - Cloudy 10 - - - -
27/02:30am 10.7 W 11 14 1018.6 - 0.2 - Partly cloudy 10 - - - -
27/02:00am 10.7 W 10 13 1018.9 - 0.2 - Partly cloudy 10 - - - -
27/01:30am 10.5 W 10 13 1018.6 - 0.0 - Partly cloudy 10 - - - -
27/01:00am 10.3 W 10 13 1018.6 - 0.0 - Partly cloudy 10 - - - -
27/12:30am 10.2 WNW 11 13 1018.7 - 0.0 - Partly cloudy 10 - - - -
27/12:00am 10.2 WNW 10 11 1018.8 F 0.0 - Cloudy 10 - - - -
 
Date/Time
EST
Temp

°C
Wind Pressure Rain
since 9am
mm
Weather Cloud Vis
km
Sea
Height
m
Swell
Dir
 
Speed
knots
Gust
knots
hPa Trend Height
m
Period
s
Dir
26/11:30pm 10.2 W 12 16 1018.9 - 0.0 - Partly cloudy 7 - - - -
26/11:00pm 10.7 W 12 16 1019.0 - 0.0 - Partly cloudy 10 - - - -
26/10:30pm 10.3 W 11 14 1019.1 - 0.0 - Partly cloudy 10 - - - -
26/10:00pm 10.3 W 8 10 1019.2 - 0.0 - - 10 - - - -
26/09:30pm 10.1 WNW 9 11 1019.3 - 0.0 - - 10 - - - -
26/09:00pm 10.5 WNW 10 14 1019.3 F 0.0 - Mostly clear 10 - - - -
26/08:30pm 11.0 W 11 15 1019.2 - 0.0 - Partly cloudy 10 - - - -
26/08:00pm 10.8 W 13 19 1018.9 - 0.0 - Partly cloudy 10 - - - -
26/07:30pm 11.3 W 15 20 1018.5 - 0.0 - Partly cloudy 10 - - - -
26/07:00pm 11.5 W 9 13 1018.7 - 0.0 - Cloudy 10 - - - -
26/06:30pm 11.7 W 11 15 1018.4 - 0.0 - Partly cloudy 10 - - - -
26/06:00pm 12.0 W 15 22 1018.2 R 0.0 - Cloudy 10 - - - -
26/05:30pm 12.5 W 16 21 1017.6 - 0.0 - Partly cloudy 10 - - - -
26/05:00pm 13.6 W 13 20 1017.2 - 0.0 - Cloudy 10 - - - -
26/04:30pm 14.6 WSW 9 13 1016.9 - 0.0 - Partly cloudy 10 - - - -
26/04:00pm 14.5 WSW 15 21 1016.9 - 0.0 - Partly cloudy 10 - - - -
26/03:30pm 13.9 W 10 13 1016.5 - 0.0 - Partly cloudy 10 - - - -
26/03:00pm 13.5 WSW 10 15 1016.5 R 0.0 - Partly cloudy 10 - - - -
26/02:30pm 13.0 WSW 6 9 1016.6 - 0.0 - Partly cloudy 9 - - - -
26/02:00pm 13.1 W 7 11 1016.3 - 0.0 - Partly cloudy 10 - - - -
26/01:56pm 12.8 WSW 7 11 1016.3 - 0.0 - Partly cloudy 10 - - - -
26/01:31pm 12.2 SSW 9 15 1016.4 - 0.0 - Partly cloudy 6 - - - -
26/01:30pm 12.3 SSW 9 15 1016.4 - 0.0 - Partly cloudy 10 - - - -
26/01:00pm 13.0 W 10 15 1016.2 - 0.0 - Partly cloudy 10 - - - -
26/12:30pm 13.0 W 15 19 1016.3 - 0.0 - Partly cloudy 10 - - - -
26/12:00pm 12.8 W 17 22 1016.2 R 0.0 - Mostly cloudy 10 - - - -
26/11:30am 12.8 W 15 20 1016.3 - 0.0 - Partly cloudy 10 - - - -
26/11:00am 13.2 W 13 17 1016.3 - 0.0 - Partly cloudy 10 - - - -
26/10:30am 13.1 WSW 14 21 1016.4 - 0.0 - Cloudy 10 - - - -
26/10:00am 12.8 WSW 12 18 1016.1 - 0.0 - Cloudy 10 - - - -
26/09:41am 12.8 WSW 15 25 1016.0 - 0.0 - Cloudy 10 - - - -
26/09:30am 12.8 WSW 16 25 1015.9 - 0.0 - Cloudy 10 - - - -
26/09:00am 13.0 WSW 15 21 1015.7 R 6.6 - Partly cloudy 10 - - - -
26/08:30am 12.2 W 11 15 1015.6 - 6.6 - Partly cloudy 10 - - - -
26/08:00am 11.1 W 11 16 1015.3 - 6.6 - Partly cloudy 10 - - - -
26/07:30am 11.1 W 9 12 1014.8 - 6.6 - Partly cloudy 10 - - - -
26/07:00am 11.4 W 9 12 1014.2 - 6.6 - Cloudy 10 - - - -
26/06:30am 12.2 W 8 11 1013.7 - 6.6 - Cloudy 10 - - - -
26/06:00am 12.6 WSW 10 15 1013.3 R 6.6 - Mostly cloudy 10 - - - -
26/05:30am 12.5 WSW 9 15 1012.9 - 6.6 - Partly cloudy 10 - - - -
26/05:00am 12.4 WSW 11 15 1012.6 - 6.6 - Partly cloudy 10 - - - -
26/04:30am 12.4 WSW 11 16 1012.3 - 6.6 - Partly cloudy 10 - - - -
26/04:00am 12.5 W 11 15 1012.1 - 6.4 - Partly cloudy 10 - - - -
26/03:30am 12.4 W 11 14 1011.9 - 6.4 - Partly cloudy 10 - - - -
26/03:00am 12.4 W 10 15 1011.7 R 6.4 - Mostly cloudy 10 - - - -
26/02:30am 12.4 W 11 14 1011.7 - 6.4 - Partly cloudy 10 - - - -
26/02:00am 12.4 W 10 13 1011.5 - 6.4 - Partly cloudy 10 - - - -
26/01:30am 12.3 W 9 11 1011.5 - 6.4 - Partly cloudy 10 - - - -
26/01:00am 12.4 W 9 12 1011.4 - 6.4 - Cloudy 10 - - - -
26/12:30am 12.4 W 9 12 1011.4 - 6.4 - Partly cloudy 9 - - - -
26/12:00am 12.4 W 9 12 1011.3 R 6.4 - Partly cloudy 10 - - - -
 
Date/Time
EST
Temp

°C
Wind Pressure Rain
since 9am
mm
Weather Cloud Vis
km
Sea
Height
m
Swell
Dir
 
Speed
knots
Gust
knots
hPa Trend Height
m
Period
s
Dir
25/11:30pm 12.7 W 9 12 1011.2 - 6.4 - Partly cloudy 10 - - - -
25/11:00pm 12.6 W 9 12 1011.3 - 6.4 - Partly cloudy 10 - - - -
25/10:30pm 12.4 W 7 10 1011.0 - 6.4 - Partly cloudy 10 - - - -
25/10:00pm 12.9 W 9 11 1011.3 - 6.4 - Partly cloudy 10 - - - -
25/09:30pm 13.2 W 7 10 1011.3 - 6.4 - Partly cloudy 10 - - - -
25/09:00pm 13.5 W 7 9 1011.1 R 6.4 Recent precip. Cloudy 10 - - - -
25/08:30pm 13.4 W 8 10 1010.8 - 6.4 - Partly cloudy 9 - - - -
25/08:00pm 13.6 W 6 8 1010.7 - 6.2 - Partly cloudy 10 - - - -
25/07:30pm 13.7 W 6 8 1010.5 - 6.2 - Partly cloudy 10 - - - -
25/07:00pm 13.6 W 5 7 1010.4 - 6.2 - Partly cloudy 10 - - - -
25/06:59pm 13.6 WNW 5 7 1010.4 - 6.2 - Partly cloudy 10 - - - -
25/06:43pm 13.5 WNW 5 5 1010.1 - 6.2 - Partly cloudy 6 - - - -
25/06:30pm 13.3 WNW 5 6 1009.9 - 6.2 - Partly cloudy 10 - - - -
25/06:00pm 13.1 WNW 6 7 1009.3 S 6.2 - Cloudy 8 - - - -
25/05:30pm 13.2 NW 6 7 1009.3 - 6.2 - Partly cloudy 10 - - - -
25/05:00pm 13.3 WNW 5 6 1009.1 - 6.2 - Partly cloudy 10 - - - -
25/04:30pm 13.4 NW 4 5 1008.9 - 6.2 - - 10 - - - -
25/04:00pm 13.3 NW 7 9 1008.7 - 6.2 - Cloudy 10 - - - -
25/03:30pm 13.6 NW 7 8 1008.7 - 6.2 - Cloudy 10 - - - -
25/03:00pm 13.5 NW 3 5 1008.4 R 6.0 - Cloudy 10 - - - -
25/02:30pm 13.2 WSW 4 5 1008.1 - 6.0 - Partly cloudy 10 - - - -
25/02:00pm 12.6 WSW 4 5 1008.1 - 6.0 - Cloudy 9 - - - -
25/01:30pm 12.6 NW 5 7 1008.3 - 5.8 - Cloudy 10 - - - -
25/01:04pm 12.6 NNW 6 7 1008.6 - 5.4 - Cloudy 7 - - - -
25/01:00pm 12.8 NNW 6 8 1008.6 - 5.2 - Cloudy 7 - - - -
25/12:39pm 12.9 NNW 9 10 1008.7 - 4.2 - Cloudy 6 - - - -
25/12:30pm 12.9 NNW 9 11 1008.8 - 4.0 - Cloudy 10 - - - -
25/12:28pm 12.9 NNW 9 11 1008.8 - 4.0 - Cloudy 10 - - - -
25/12:00pm 13.0 N 7 9 1009.1 R 3.0 Rain Mostly cloudy 4 - - - -
25/11:30am 13.1 NNW 5 6 1009.2 - 1.8 - Partly cloudy 4 - - - -
25/11:17am 13.3 N 5 7 1009.3 - 0.8 - Partly cloudy 6 - - - -
25/11:01am 13.4 NNW 4 5 1009.1 - 0.8 - Partly cloudy 10 - - - -
25/11:00am 13.4 NNW 4 5 1009.1 - 0.8 - Partly cloudy 10 - - - -
25/10:30am 13.2 WNW 7 8 1009.0 - 0.4 - Partly cloudy 6 - - - -
25/10:09am 13.3 WNW 7 8 1008.9 - 0.0 - Partly cloudy 6 - - - -
25/10:00am 13.4 NW 7 9 1008.9 - 0.0 - Partly cloudy 10 - - - -
25/09:30am 13.8 NW 8 11 1008.6 - 0.0 - Partly cloudy 10 - - - -
25/09:00am 13.2 W 7 10 1008.5 R 1.8 - Cloudy 10 - - - -
25/08:30am 12.7 W 5 6 1008.2 - 1.8 - Partly cloudy 10 - - - -
25/08:00am 12.4 WSW 9 13 1007.8 - 1.8 - Partly cloudy 10 - - - -
25/07:30am 11.7 WNW 7 8 1007.6 - 1.8 - Partly cloudy 10 - - - -
25/07:27am 11.4 WNW 7 8 1007.6 - 1.8 Shallow fog Partly cloudy 10 - - - -
25/07:00am 10.1 WNW 5 6 1007.1 - 1.8 - - 8 - - - -
25/06:30am 10.2 NW 5 6 1006.9 - 1.8 - - 6 - - - -
25/06:00am 10.9 NW 5 6 1006.4 F 1.8 - Cloudy 5 - - - -
25/05:30am 11.3 N 5 7 1006.2 - 1.8 - - 5 - - - -
25/05:00am 10.1 N 6 7 1006.0 - 1.8 - - 5 - - - -
25/04:47am 10.9 WNW 5 5 1005.8 - 1.8 - Partly cloudy 6 - - - -
25/04:30am 11.3 WNW 5 6 1005.9 - 1.8 - Partly cloudy 8 - - - -
25/04:00am 12.0 W 4 6 1006.2 - 1.8 - Cloudy 10 - - - -
25/03:30am 11.8 WSW 5 7 1006.2 - 1.8 - Partly cloudy 10 - - - -
25/03:00am 11.3 WNW 5 7 1006.4 R 1.8 - - 9 - - - -
25/02:41am 11.4 NW 5 6 1006.4 - 1.8 - Partly cloudy 8 - - - -
25/02:30am 11.9 NNW 4 6 1006.5 - 1.8 - Partly cloudy 6 - - - -
25/02:27am 11.8 NNW 4 5 1006.5 - 1.8 - Partly cloudy 6 - - - -
25/02:00am 11.9 NW 3 3 1006.4 - 1.8 - Cloudy 9 - - - -
25/01:30am 11.8 ENE 5 7 1006.0 - 1.8 - Cloudy 7 - - - -
25/01:00am 11.7 NW 6 7 1005.9 - 1.8 - Cloudy 10 - - - -
25/12:33am 11.2 NNW 3 5 1005.9 - 1.8 - Partly cloudy 7 - - - -
25/12:30am 11.1 N 3 4 1005.9 - 1.8 - Partly cloudy 7 - - - -
25/12:00am 11.8 E 3 4 1005.7 R 1.8 - Mostly clear 4 - - - -
 
Date/Time
EST
Temp

°C
Wind Pressure Rain
since 9am
mm
Weather Cloud Vis
km
Sea
Height
m
Swell
Dir
 
Speed
knots
Gust
knots
hPa Trend Height
m
Period
s
Dir
24/11:43pm 12.4 ESE 4 4 1005.7 - 1.8 - Partly cloudy 6 - - - -

Other Formats:

Comma delimited format used in spreadsheet applications
http://www.bom.gov.au/fwo/IDV60701/IDV60701.94907.axf

JavaScript Object Notation format (JSON) in row-major order
http://www.bom.gov.au/fwo/IDV60701/IDV60701.94907.json